sensor_id;sensor_type;location;lat;lon;timestamp;P1;durP1;ratioP1;P2;durP2;ratioP2
68010;SDS011;54794;48.348;7.878;2024-01-10T00:01:04;6.47;;;3.05;;
68010;SDS011;54794;48.348;7.878;2024-01-10T00:05:59;6.97;;;3.17;;
68010;SDS011;54794;48.348;7.878;2024-01-10T00:08:30;5.18;;;2.90;;
68010;SDS011;54794;48.348;7.878;2024-01-10T00:10:56;5.20;;;2.80;;
68010;SDS011;54794;48.348;7.878;2024-01-10T00:13:23;6.47;;;3.38;;
68010;SDS011;54794;48.348;7.878;2024-01-10T00:15:50;7.78;;;3.38;;
68010;SDS011;54794;48.348;7.878;2024-01-10T00:18:17;6.25;;;3.78;;
68010;SDS011;54794;48.348;7.878;2024-01-10T00:20:44;7.18;;;3.95;;
68010;SDS011;54794;48.348;7.878;2024-01-10T00:23:11;6.15;;;3.20;;
68010;SDS011;54794;48.348;7.878;2024-01-10T00:25:38;6.30;;;3.33;;
68010;SDS011;54794;48.348;7.878;2024-01-10T00:28:05;5.38;;;2.85;;
68010;SDS011;54794;48.348;7.878;2024-01-10T00:30:32;5.82;;;2.75;;
68010;SDS011;54794;48.348;7.878;2024-01-10T00:32:59;5.65;;;3.25;;
68010;SDS011;54794;48.348;7.878;2024-01-10T00:35:26;6.82;;;3.25;;
68010;SDS011;54794;48.348;7.878;2024-01-10T00:37:53;6.35;;;3.17;;
68010;SDS011;54794;48.348;7.878;2024-01-10T00:40:20;7.80;;;3.55;;
68010;SDS011;54794;48.348;7.878;2024-01-10T00:42:47;5.55;;;3.15;;
68010;SDS011;54794;48.348;7.878;2024-01-10T00:45:15;6.43;;;3.75;;
68010;SDS011;54794;48.348;7.878;2024-01-10T00:47:43;7.85;;;4.32;;
68010;SDS011;54794;48.348;7.878;2024-01-10T00:50:10;6.90;;;3.75;;
68010;SDS011;54794;48.348;7.878;2024-01-10T00:52:37;6.93;;;3.28;;
68010;SDS011;54794;48.348;7.878;2024-01-10T00:55:04;4.78;;;2.80;;
68010;SDS011;54794;48.348;7.878;2024-01-10T00:57:31;4.22;;;2.80;;
68010;SDS011;54794;48.348;7.878;2024-01-10T00:59:58;5.88;;;3.13;;
68010;SDS011;54794;48.348;7.878;2024-01-10T01:02:25;6.43;;;3.25;;
68010;SDS011;54794;48.348;7.878;2024-01-10T01:04:53;6.72;;;3.35;;
68010;SDS011;54794;48.348;7.878;2024-01-10T01:07:20;6.68;;;3.08;;
68010;SDS011;54794;48.348;7.878;2024-01-10T01:09:47;5.28;;;3.08;;
68010;SDS011;54794;48.348;7.878;2024-01-10T01:12:14;6.28;;;2.95;;
68010;SDS011;54794;48.348;7.878;2024-01-10T01:14:41;4.97;;;3.22;;
68010;SDS011;54794;48.348;7.878;2024-01-10T01:17:08;6.40;;;3.13;;
68010;SDS011;54794;48.348;7.878;2024-01-10T01:19:35;7.18;;;3.35;;
68010;SDS011;54794;48.348;7.878;2024-01-10T01:22:02;5.85;;;3.50;;
68010;SDS011;54794;48.348;7.878;2024-01-10T01:24:29;7.13;;;3.60;;
68010;SDS011;54794;48.348;7.878;2024-01-10T01:26:56;6.90;;;3.60;;
68010;SDS011;54794;48.348;7.878;2024-01-10T01:29:23;6.55;;;3.72;;
68010;SDS011;54794;48.348;7.878;2024-01-10T01:31:50;5.10;;;3.03;;
68010;SDS011;54794;48.348;7.878;2024-01-10T01:34:18;5.35;;;3.03;;
68010;SDS011;54794;48.348;7.878;2024-01-10T01:36:45;6.22;;;3.47;;
68010;SDS011;54794;48.348;7.878;2024-01-10T01:39:12;5.25;;;3.17;;
68010;SDS011;54794;48.348;7.878;2024-01-10T01:41:40;7.68;;;3.50;;
68010;SDS011;54794;48.348;7.878;2024-01-10T01:44:06;6.20;;;3.28;;
68010;SDS011;54794;48.348;7.878;2024-01-10T01:46:33;6.57;;;3.28;;
68010;SDS011;54794;48.348;7.878;2024-01-10T01:49:01;7.07;;;3.50;;
68010;SDS011;54794;48.348;7.878;2024-01-10T01:51:30;5.47;;;2.92;;
68010;SDS011;54794;48.348;7.878;2024-01-10T01:53:58;6.30;;;3.25;;
68010;SDS011;54794;48.348;7.878;2024-01-10T01:56:25;4.82;;;2.85;;
68010;SDS011;54794;48.348;7.878;2024-01-10T01:58:52;7.28;;;3.30;;
68010;SDS011;54794;48.348;7.878;2024-01-10T02:01:21;5.40;;;3.13;;
68010;SDS011;54794;48.348;7.878;2024-01-10T02:03:48;7.85;;;3.65;;
68010;SDS011;54794;48.348;7.878;2024-01-10T02:06:16;6.57;;;3.25;;
68010;SDS011;54794;48.348;7.878;2024-01-10T02:08:43;5.47;;;3.00;;
68010;SDS011;54794;48.348;7.878;2024-01-10T02:11:10;6.75;;;3.00;;
68010;SDS011;54794;48.348;7.878;2024-01-10T02:13:37;6.85;;;3.05;;
68010;SDS011;54794;48.348;7.878;2024-01-10T02:16:04;5.97;;;2.70;;
68010;SDS011;54794;48.348;7.878;2024-01-10T02:18:31;5.32;;;2.83;;
68010;SDS011;54794;48.348;7.878;2024-01-10T02:21:01;5.25;;;3.05;;
68010;SDS011;54794;48.348;7.878;2024-01-10T02:23:28;5.22;;;2.47;;
68010;SDS011;54794;48.348;7.878;2024-01-10T02:25:55;5.82;;;3.17;;
68010;SDS011;54794;48.348;7.878;2024-01-10T02:28:22;6.45;;;3.20;;
68010;SDS011;54794;48.348;7.878;2024-01-10T02:30:50;5.93;;;2.92;;
68010;SDS011;54794;48.348;7.878;2024-01-10T02:33:20;9.60;;;3.80;;
68010;SDS011;54794;48.348;7.878;2024-01-10T02:35:47;5.20;;;3.13;;
68010;SDS011;54794;48.348;7.878;2024-01-10T02:38:14;8.85;;;3.28;;
68010;SDS011;54794;48.348;7.878;2024-01-10T02:40:41;5.93;;;3.00;;
68010;SDS011;54794;48.348;7.878;2024-01-10T02:43:08;4.85;;;2.65;;
68010;SDS011;54794;48.348;7.878;2024-01-10T02:45:36;5.63;;;2.60;;
68010;SDS011;54794;48.348;7.878;2024-01-10T02:48:03;5.70;;;2.92;;
68010;SDS011;54794;48.348;7.878;2024-01-10T02:52:57;4.60;;;2.33;;
68010;SDS011;54794;48.348;7.878;2024-01-10T02:55:24;4.47;;;2.58;;
68010;SDS011;54794;48.348;7.878;2024-01-10T02:57:51;5.70;;;2.88;;
68010;SDS011;54794;48.348;7.878;2024-01-10T03:00:18;5.00;;;2.65;;
68010;SDS011;54794;48.348;7.878;2024-01-10T03:02:45;5.90;;;3.00;;
68010;SDS011;54794;48.348;7.878;2024-01-10T03:05:12;6.28;;;3.03;;
68010;SDS011;54794;48.348;7.878;2024-01-10T03:07:39;5.57;;;2.97;;
68010;SDS011;54794;48.348;7.878;2024-01-10T03:10:06;5.93;;;2.70;;
68010;SDS011;54794;48.348;7.878;2024-01-10T03:12:33;5.65;;;2.88;;
68010;SDS011;54794;48.348;7.878;2024-01-10T03:15:04;6.85;;;3.25;;
68010;SDS011;54794;48.348;7.878;2024-01-10T03:17:32;5.45;;;2.78;;
68010;SDS011;54794;48.348;7.878;2024-01-10T03:20:00;6.15;;;3.03;;
68010;SDS011;54794;48.348;7.878;2024-01-10T03:22:27;6.55;;;3.05;;
68010;SDS011;54794;48.348;7.878;2024-01-10T03:24:54;5.78;;;3.00;;
68010;SDS011;54794;48.348;7.878;2024-01-10T03:27:21;6.05;;;2.75;;
68010;SDS011;54794;48.348;7.878;2024-01-10T03:29:47;5.88;;;3.00;;
68010;SDS011;54794;48.348;7.878;2024-01-10T03:32:14;6.72;;;2.80;;
68010;SDS011;54794;48.348;7.878;2024-01-10T03:34:42;5.57;;;3.20;;
68010;SDS011;54794;48.348;7.878;2024-01-10T03:37:09;5.05;;;2.72;;
68010;SDS011;54794;48.348;7.878;2024-01-10T03:39:36;6.50;;;3.20;;
68010;SDS011;54794;48.348;7.878;2024-01-10T03:42:02;7.40;;;3.30;;
68010;SDS011;54794;48.348;7.878;2024-01-10T03:44:29;5.13;;;2.67;;
68010;SDS011;54794;48.348;7.878;2024-01-10T03:46:56;6.35;;;3.00;;
68010;SDS011;54794;48.348;7.878;2024-01-10T03:49:23;5.70;;;2.90;;
68010;SDS011;54794;48.348;7.878;2024-01-10T03:51:53;6.45;;;2.80;;
68010;SDS011;54794;48.348;7.878;2024-01-10T03:54:20;6.43;;;3.10;;
68010;SDS011;54794;48.348;7.878;2024-01-10T03:56:47;6.70;;;3.20;;
68010;SDS011;54794;48.348;7.878;2024-01-10T03:59:14;6.63;;;3.10;;
68010;SDS011;54794;48.348;7.878;2024-01-10T04:01:41;5.13;;;2.97;;
68010;SDS011;54794;48.348;7.878;2024-01-10T04:04:08;5.82;;;3.22;;
68010;SDS011;54794;48.348;7.878;2024-01-10T04:06:35;6.70;;;3.30;;
68010;SDS011;54794;48.348;7.878;2024-01-10T04:09:02;6.40;;;3.22;;
68010;SDS011;54794;48.348;7.878;2024-01-10T04:11:29;5.18;;;2.95;;
68010;SDS011;54794;48.348;7.878;2024-01-10T04:13:56;6.18;;;3.05;;
68010;SDS011;54794;48.348;7.878;2024-01-10T04:16:23;6.07;;;3.25;;
68010;SDS011;54794;48.348;7.878;2024-01-10T04:18:50;5.22;;;3.03;;
68010;SDS011;54794;48.348;7.878;2024-01-10T04:21:17;6.50;;;2.88;;
68010;SDS011;54794;48.348;7.878;2024-01-10T04:23:44;5.30;;;2.80;;
68010;SDS011;54794;48.348;7.878;2024-01-10T04:26:11;6.10;;;2.90;;
68010;SDS011;54794;48.348;7.878;2024-01-10T04:28:38;5.45;;;2.80;;
68010;SDS011;54794;48.348;7.878;2024-01-10T04:31:07;7.80;;;3.20;;
68010;SDS011;54794;48.348;7.878;2024-01-10T04:33:34;5.43;;;3.03;;
68010;SDS011;54794;48.348;7.878;2024-01-10T04:36:02;6.47;;;3.22;;
68010;SDS011;54794;48.348;7.878;2024-01-10T04:38:29;6.00;;;3.50;;
68010;SDS011;54794;48.348;7.878;2024-01-10T04:40:56;5.30;;;2.85;;
68010;SDS011;54794;48.348;7.878;2024-01-10T04:43:23;6.18;;;3.22;;
68010;SDS011;54794;48.348;7.878;2024-01-10T04:45:50;6.90;;;3.30;;
68010;SDS011;54794;48.348;7.878;2024-01-10T04:48:17;5.47;;;3.22;;
68010;SDS011;54794;48.348;7.878;2024-01-10T04:50:45;5.80;;;2.85;;
68010;SDS011;54794;48.348;7.878;2024-01-10T04:53:11;7.03;;;3.15;;
68010;SDS011;54794;48.348;7.878;2024-01-10T04:55:39;5.20;;;2.78;;
68010;SDS011;54794;48.348;7.878;2024-01-10T04:58:06;4.97;;;2.55;;
68010;SDS011;54794;48.348;7.878;2024-01-10T05:00:33;5.40;;;2.90;;
68010;SDS011;54794;48.348;7.878;2024-01-10T05:02:59;6.30;;;2.40;;
68010;SDS011;54794;48.348;7.878;2024-01-10T05:05:26;5.32;;;2.78;;
68010;SDS011;54794;48.348;7.878;2024-01-10T05:07:54;5.72;;;2.83;;
68010;SDS011;54794;48.348;7.878;2024-01-10T05:10:21;4.68;;;2.65;;
68010;SDS011;54794;48.348;7.878;2024-01-10T05:12:51;5.53;;;3.05;;
68010;SDS011;54794;48.348;7.878;2024-01-10T05:15:17;6.35;;;2.67;;
68010;SDS011;54794;48.348;7.878;2024-01-10T05:17:44;5.47;;;2.78;;
68010;SDS011;54794;48.348;7.878;2024-01-10T05:20:11;7.00;;;3.28;;
68010;SDS011;54794;48.348;7.878;2024-01-10T05:22:39;5.43;;;2.88;;
68010;SDS011;54794;48.348;7.878;2024-01-10T05:25:07;6.15;;;3.05;;
68010;SDS011;54794;48.348;7.878;2024-01-10T05:27:34;5.22;;;2.50;;
68010;SDS011;54794;48.348;7.878;2024-01-10T05:30:00;5.00;;;2.78;;
68010;SDS011;54794;48.348;7.878;2024-01-10T05:32:27;5.22;;;3.10;;
68010;SDS011;54794;48.348;7.878;2024-01-10T05:34:55;6.60;;;3.33;;
68010;SDS011;54794;48.348;7.878;2024-01-10T05:37:22;4.13;;;2.63;;
68010;SDS011;54794;48.348;7.878;2024-01-10T05:39:49;7.70;;;3.15;;
68010;SDS011;54794;48.348;7.878;2024-01-10T05:42:16;5.18;;;2.67;;
68010;SDS011;54794;48.348;7.878;2024-01-10T05:44:43;5.82;;;2.70;;
68010;SDS011;54794;48.348;7.878;2024-01-10T05:47:10;5.35;;;2.78;;
68010;SDS011;54794;48.348;7.878;2024-01-10T05:49:37;6.10;;;2.90;;
68010;SDS011;54794;48.348;7.878;2024-01-10T05:52:05;5.32;;;2.33;;
68010;SDS011;54794;48.348;7.878;2024-01-10T05:54:32;4.53;;;2.50;;
68010;SDS011;54794;48.348;7.878;2024-01-10T05:56:59;5.30;;;2.90;;
68010;SDS011;54794;48.348;7.878;2024-01-10T05:59:27;6.07;;;2.65;;
68010;SDS011;54794;48.348;7.878;2024-01-10T06:01:55;5.53;;;2.92;;
68010;SDS011;54794;48.348;7.878;2024-01-10T06:04:23;5.15;;;2.53;;
68010;SDS011;54794;48.348;7.878;2024-01-10T06:06:50;7.22;;;3.38;;
68010;SDS011;54794;48.348;7.878;2024-01-10T06:09:17;5.85;;;3.13;;
68010;SDS011;54794;48.348;7.878;2024-01-10T06:11:48;7.15;;;3.65;;
68010;SDS011;54794;48.348;7.878;2024-01-10T06:14:15;7.10;;;3.22;;
68010;SDS011;54794;48.348;7.878;2024-01-10T06:16:43;6.43;;;3.58;;
68010;SDS011;54794;48.348;7.878;2024-01-10T06:19:14;6.90;;;3.80;;
68010;SDS011;54794;48.348;7.878;2024-01-10T06:21:42;6.40;;;3.35;;
68010;SDS011;54794;48.348;7.878;2024-01-10T06:24:09;6.57;;;3.35;;
68010;SDS011;54794;48.348;7.878;2024-01-10T06:26:36;5.72;;;2.85;;
68010;SDS011;54794;48.348;7.878;2024-01-10T06:29:03;5.25;;;3.08;;
68010;SDS011;54794;48.348;7.878;2024-01-10T06:31:31;6.93;;;3.47;;
68010;SDS011;54794;48.348;7.878;2024-01-10T06:34:03;5.43;;;2.70;;
68010;SDS011;54794;48.348;7.878;2024-01-10T06:36:30;6.53;;;3.25;;
68010;SDS011;54794;48.348;7.878;2024-01-10T06:39:04;5.80;;;2.88;;
68010;SDS011;54794;48.348;7.878;2024-01-10T06:41:31;5.72;;;2.72;;
68010;SDS011;54794;48.348;7.878;2024-01-10T06:43:58;5.15;;;2.83;;
68010;SDS011;54794;48.348;7.878;2024-01-10T06:46:29;6.35;;;3.03;;
68010;SDS011;54794;48.348;7.878;2024-01-10T06:49:00;7.30;;;3.22;;
68010;SDS011;54794;48.348;7.878;2024-01-10T06:51:27;6.45;;;3.28;;
68010;SDS011;54794;48.348;7.878;2024-01-10T06:53:54;6.57;;;3.28;;
68010;SDS011;54794;48.348;7.878;2024-01-10T06:56:32;5.55;;;2.88;;
68010;SDS011;54794;48.348;7.878;2024-01-10T06:59:00;5.05;;;3.05;;
68010;SDS011;54794;48.348;7.878;2024-01-10T07:01:28;6.45;;;3.22;;
68010;SDS011;54794;48.348;7.878;2024-01-10T07:03:55;5.90;;;3.17;;
68010;SDS011;54794;48.348;7.878;2024-01-10T07:06:22;7.20;;;3.20;;
68010;SDS011;54794;48.348;7.878;2024-01-10T07:08:50;7.35;;;3.35;;
68010;SDS011;54794;48.348;7.878;2024-01-10T07:13:46;5.10;;;2.95;;
68010;SDS011;54794;48.348;7.878;2024-01-10T07:16:13;6.07;;;2.80;;
68010;SDS011;54794;48.348;7.878;2024-01-10T07:18:46;7.72;;;3.33;;
68010;SDS011;54794;48.348;7.878;2024-01-10T07:21:13;6.72;;;2.90;;
68010;SDS011;54794;48.348;7.878;2024-01-10T07:23:40;6.50;;;2.92;;
68010;SDS011;54794;48.348;7.878;2024-01-10T07:26:09;5.50;;;3.38;;
68010;SDS011;54794;48.348;7.878;2024-01-10T07:28:39;7.20;;;3.38;;
68010;SDS011;54794;48.348;7.878;2024-01-10T07:31:08;5.53;;;3.08;;
68010;SDS011;54794;48.348;7.878;2024-01-10T07:33:35;3.92;;;2.40;;
68010;SDS011;54794;48.348;7.878;2024-01-10T07:36:02;6.90;;;3.40;;
68010;SDS011;54794;48.348;7.878;2024-01-10T07:38:29;6.72;;;2.72;;
68010;SDS011;54794;48.348;7.878;2024-01-10T07:40:56;6.10;;;3.25;;
68010;SDS011;54794;48.348;7.878;2024-01-10T07:43:25;5.47;;;3.08;;
68010;SDS011;54794;48.348;7.878;2024-01-10T07:45:53;4.95;;;2.83;;
68010;SDS011;54794;48.348;7.878;2024-01-10T07:48:20;6.53;;;3.00;;
68010;SDS011;54794;48.348;7.878;2024-01-10T07:50:47;6.57;;;3.15;;
68010;SDS011;54794;48.348;7.878;2024-01-10T07:53:14;6.93;;;2.97;;
68010;SDS011;54794;48.348;7.878;2024-01-10T07:55:41;9.10;;;3.58;;
68010;SDS011;54794;48.348;7.878;2024-01-10T07:58:08;6.63;;;3.25;;
68010;SDS011;54794;48.348;7.878;2024-01-10T08:00:35;6.85;;;3.60;;
68010;SDS011;54794;48.348;7.878;2024-01-10T08:03:02;7.35;;;3.63;;
68010;SDS011;54794;48.348;7.878;2024-01-10T08:05:29;5.20;;;2.63;;
68010;SDS011;54794;48.348;7.878;2024-01-10T08:07:59;4.90;;;2.83;;
68010;SDS011;54794;48.348;7.878;2024-01-10T08:10:26;5.25;;;2.88;;
68010;SDS011;54794;48.348;7.878;2024-01-10T08:13:00;6.07;;;3.13;;
68010;SDS011;54794;48.348;7.878;2024-01-10T08:15:27;7.60;;;3.30;;
68010;SDS011;54794;48.348;7.878;2024-01-10T08:17:56;6.15;;;3.20;;
68010;SDS011;54794;48.348;7.878;2024-01-10T08:20:23;5.95;;;3.05;;
68010;SDS011;54794;48.348;7.878;2024-01-10T08:22:50;7.07;;;3.60;;
68010;SDS011;54794;48.348;7.878;2024-01-10T08:25:17;6.07;;;3.20;;
68010;SDS011;54794;48.348;7.878;2024-01-10T08:27:45;5.78;;;3.00;;
68010;SDS011;54794;48.348;7.878;2024-01-10T08:30:12;6.07;;;3.17;;
68010;SDS011;54794;48.348;7.878;2024-01-10T08:32:39;5.85;;;2.78;;
68010;SDS011;54794;48.348;7.878;2024-01-10T08:35:06;6.93;;;3.30;;
68010;SDS011;54794;48.348;7.878;2024-01-10T08:37:35;5.20;;;2.88;;
68010;SDS011;54794;48.348;7.878;2024-01-10T08:40:03;7.88;;;3.55;;
68010;SDS011;54794;48.348;7.878;2024-01-10T08:42:38;6.78;;;3.25;;
68010;SDS011;54794;48.348;7.878;2024-01-10T08:45:05;6.00;;;3.20;;
68010;SDS011;54794;48.348;7.878;2024-01-10T08:47:35;6.25;;;3.20;;
68010;SDS011;54794;48.348;7.878;2024-01-10T08:50:03;6.00;;;3.35;;
68010;SDS011;54794;48.348;7.878;2024-01-10T08:52:31;5.10;;;2.65;;
68010;SDS011;54794;48.348;7.878;2024-01-10T08:54:58;6.28;;;3.05;;
68010;SDS011;54794;48.348;7.878;2024-01-10T08:57:25;5.90;;;3.10;;
68010;SDS011;54794;48.348;7.878;2024-01-10T08:59:56;6.80;;;3.35;;
68010;SDS011;54794;48.348;7.878;2024-01-10T09:02:23;6.55;;;3.30;;
68010;SDS011;54794;48.348;7.878;2024-01-10T09:04:50;6.00;;;3.33;;
68010;SDS011;54794;48.348;7.878;2024-01-10T09:07:17;5.10;;;2.63;;
68010;SDS011;54794;48.348;7.878;2024-01-10T09:09:44;5.25;;;3.10;;
68010;SDS011;54794;48.348;7.878;2024-01-10T09:12:11;5.32;;;2.85;;
68010;SDS011;54794;48.348;7.878;2024-01-10T09:14:38;5.32;;;3.08;;
68010;SDS011;54794;48.348;7.878;2024-01-10T09:17:05;4.85;;;2.92;;
68010;SDS011;54794;48.348;7.878;2024-01-10T09:19:33;5.10;;;2.72;;
68010;SDS011;54794;48.348;7.878;2024-01-10T09:22:00;5.65;;;3.00;;
68010;SDS011;54794;48.348;7.878;2024-01-10T09:24:27;8.55;;;3.72;;
68010;SDS011;54794;48.348;7.878;2024-01-10T09:26:55;6.55;;;2.97;;
68010;SDS011;54794;48.348;7.878;2024-01-10T09:29:23;5.85;;;3.03;;
68010;SDS011;54794;48.348;7.878;2024-01-10T09:31:54;4.95;;;3.20;;
68010;SDS011;54794;48.348;7.878;2024-01-10T09:34:21;6.38;;;3.35;;
68010;SDS011;54794;48.348;7.878;2024-01-10T09:36:49;6.13;;;3.08;;
68010;SDS011;54794;48.348;7.878;2024-01-10T09:39:15;5.93;;;3.00;;
68010;SDS011;54794;48.348;7.878;2024-01-10T09:41:46;5.47;;;3.00;;
68010;SDS011;54794;48.348;7.878;2024-01-10T09:44:15;5.75;;;2.80;;
68010;SDS011;54794;48.348;7.878;2024-01-10T09:46:49;7.53;;;2.95;;
68010;SDS011;54794;48.348;7.878;2024-01-10T09:49:19;5.30;;;3.25;;
68010;SDS011;54794;48.348;7.878;2024-01-10T09:51:50;5.72;;;2.92;;
68010;SDS011;54794;48.348;7.878;2024-01-10T09:54:24;6.13;;;3.10;;
68010;SDS011;54794;48.348;7.878;2024-01-10T09:56:52;5.80;;;3.17;;
68010;SDS011;54794;48.348;7.878;2024-01-10T09:59:22;5.50;;;2.85;;
68010;SDS011;54794;48.348;7.878;2024-01-10T10:01:49;7.97;;;3.58;;
68010;SDS011;54794;48.348;7.878;2024-01-10T10:04:19;5.65;;;3.08;;
68010;SDS011;54794;48.348;7.878;2024-01-10T10:06:47;8.20;;;3.03;;
68010;SDS011;54794;48.348;7.878;2024-01-10T10:09:14;6.50;;;3.03;;
68010;SDS011;54794;48.348;7.878;2024-01-10T10:11:52;6.60;;;3.45;;
68010;SDS011;54794;48.348;7.878;2024-01-10T10:14:21;5.65;;;2.90;;
68010;SDS011;54794;48.348;7.878;2024-01-10T10:16:48;6.45;;;3.22;;
68010;SDS011;54794;48.348;7.878;2024-01-10T10:19:21;6.63;;;3.28;;
68010;SDS011;54794;48.348;7.878;2024-01-10T10:22:08;4.20;;;2.70;;
68010;SDS011;54794;48.348;7.878;2024-01-10T10:24:38;6.82;;;3.65;;
68010;SDS011;54794;48.348;7.878;2024-01-10T10:27:08;6.03;;;3.80;;
68010;SDS011;54794;48.348;7.878;2024-01-10T10:29:38;8.85;;;4.13;;
68010;SDS011;54794;48.348;7.878;2024-01-10T10:32:06;8.25;;;4.28;;
68010;SDS011;54794;48.348;7.878;2024-01-10T10:34:35;7.70;;;3.58;;
68010;SDS011;54794;48.348;7.878;2024-01-10T10:37:02;7.43;;;3.67;;
68010;SDS011;54794;48.348;7.878;2024-01-10T10:39:29;7.13;;;3.72;;
68010;SDS011;54794;48.348;7.878;2024-01-10T10:41:56;8.20;;;3.85;;
68010;SDS011;54794;48.348;7.878;2024-01-10T10:44:24;8.40;;;4.03;;
68010;SDS011;54794;48.348;7.878;2024-01-10T10:46:53;6.45;;;3.65;;
68010;SDS011;54794;48.348;7.878;2024-01-10T10:49:37;8.32;;;3.97;;
68010;SDS011;54794;48.348;7.878;2024-01-10T10:52:16;4.80;;;3.33;;
68010;SDS011;54794;48.348;7.878;2024-01-10T10:54:46;5.82;;;3.25;;
68010;SDS011;54794;48.348;7.878;2024-01-10T10:57:14;8.43;;;4.35;;
68010;SDS011;54794;48.348;7.878;2024-01-10T10:59:46;7.80;;;4.20;;
68010;SDS011;54794;48.348;7.878;2024-01-10T11:02:20;11.27;;;5.13;;
68010;SDS011;54794;48.348;7.878;2024-01-10T11:04:56;7.15;;;3.80;;
68010;SDS011;54794;48.348;7.878;2024-01-10T11:07:26;7.53;;;4.18;;
68010;SDS011;54794;48.348;7.878;2024-01-10T11:09:54;7.80;;;4.03;;
68010;SDS011;54794;48.348;7.878;2024-01-10T11:12:34;6.70;;;3.42;;
68010;SDS011;54794;48.348;7.878;2024-01-10T11:15:51;5.60;;;3.15;;
68010;SDS011;54794;48.348;7.878;2024-01-10T11:26:07;6.97;;;3.70;;
68010;SDS011;54794;48.348;7.878;2024-01-10T11:28:35;7.93;;;4.35;;
68010;SDS011;54794;48.348;7.878;2024-01-10T11:31:07;6.22;;;3.70;;
68010;SDS011;54794;48.348;7.878;2024-01-10T11:33:39;6.93;;;3.72;;
68010;SDS011;54794;48.348;7.878;2024-01-10T11:36:18;6.50;;;3.28;;
68010;SDS011;54794;48.348;7.878;2024-01-10T11:41:22;5.20;;;2.92;;
68010;SDS011;54794;48.348;7.878;2024-01-10T11:49:18;4.68;;;2.70;;
68010;SDS011;54794;48.348;7.878;2024-01-10T11:51:52;6.45;;;3.33;;
68010;SDS011;54794;48.348;7.878;2024-01-10T11:54:36;6.90;;;3.38;;
68010;SDS011;54794;48.348;7.878;2024-01-10T11:57:07;6.88;;;3.60;;
68010;SDS011;54794;48.348;7.878;2024-01-10T11:59:57;5.82;;;3.38;;
68010;SDS011;54794;48.348;7.878;2024-01-10T12:02:29;6.22;;;3.53;;
68010;SDS011;54794;48.348;7.878;2024-01-10T12:04:57;6.32;;;3.42;;
68010;SDS011;54794;48.348;7.878;2024-01-10T12:07:24;13.55;;;5.75;;
68010;SDS011;54794;48.348;7.878;2024-01-10T12:09:52;8.57;;;4.70;;
68010;SDS011;54794;48.348;7.878;2024-01-10T12:12:19;9.88;;;5.25;;
68010;SDS011;54794;48.348;7.878;2024-01-10T12:14:46;11.63;;;4.88;;
68010;SDS011;54794;48.348;7.878;2024-01-10T12:17:13;6.38;;;3.80;;
68010;SDS011;54794;48.348;7.878;2024-01-10T12:19:40;8.10;;;4.20;;
68010;SDS011;54794;48.348;7.878;2024-01-10T12:22:12;8.52;;;4.10;;
68010;SDS011;54794;48.348;7.878;2024-01-10T12:24:43;9.18;;;4.13;;
68010;SDS011;54794;48.348;7.878;2024-01-10T12:27:18;7.03;;;4.20;;
68010;SDS011;54794;48.348;7.878;2024-01-10T12:29:51;7.72;;;4.32;;
68010;SDS011;54794;48.348;7.878;2024-01-10T12:32:20;9.05;;;4.45;;
68010;SDS011;54794;48.348;7.878;2024-01-10T12:34:54;9.52;;;4.97;;
68010;SDS011;54794;48.348;7.878;2024-01-10T12:37:26;7.05;;;3.83;;
68010;SDS011;54794;48.348;7.878;2024-01-10T12:39:53;7.40;;;4.15;;
68010;SDS011;54794;48.348;7.878;2024-01-10T12:42:22;6.82;;;3.95;;
68010;SDS011;54794;48.348;7.878;2024-01-10T12:44:50;9.77;;;4.78;;
68010;SDS011;54794;48.348;7.878;2024-01-10T12:47:21;7.03;;;3.63;;
68010;SDS011;54794;48.348;7.878;2024-01-10T12:49:50;8.25;;;4.20;;
68010;SDS011;54794;48.348;7.878;2024-01-10T12:52:18;7.60;;;4.30;;
68010;SDS011;54794;48.348;7.878;2024-01-10T12:54:49;6.60;;;3.60;;
68010;SDS011;54794;48.348;7.878;2024-01-10T12:57:19;6.97;;;3.65;;
68010;SDS011;54794;48.348;7.878;2024-01-10T12:59:46;6.88;;;3.20;;
68010;SDS011;54794;48.348;7.878;2024-01-10T13:02:13;10.70;;;4.03;;
68010;SDS011;54794;48.348;7.878;2024-01-10T13:04:40;7.28;;;3.60;;
68010;SDS011;54794;48.348;7.878;2024-01-10T13:07:07;6.95;;;4.03;;
68010;SDS011;54794;48.348;7.878;2024-01-10T13:09:34;7.55;;;4.15;;
68010;SDS011;54794;48.348;7.878;2024-01-10T13:12:03;6.13;;;3.60;;
68010;SDS011;54794;48.348;7.878;2024-01-10T13:17:03;5.93;;;2.90;;
68010;SDS011;54794;48.348;7.878;2024-01-10T13:19:31;6.40;;;3.28;;
68010;SDS011;54794;48.348;7.878;2024-01-10T13:21:58;8.30;;;4.65;;
68010;SDS011;54794;48.348;7.878;2024-01-10T13:24:25;6.45;;;3.80;;
68010;SDS011;54794;48.348;7.878;2024-01-10T13:26:52;6.55;;;3.38;;
68010;SDS011;54794;48.348;7.878;2024-01-10T13:29:19;7.45;;;4.47;;
68010;SDS011;54794;48.348;7.878;2024-01-10T13:31:46;7.53;;;3.90;;
68010;SDS011;54794;48.348;7.878;2024-01-10T13:34:16;6.80;;;3.60;;
68010;SDS011;54794;48.348;7.878;2024-01-10T13:36:43;6.68;;;3.75;;
68010;SDS011;54794;48.348;7.878;2024-01-10T13:39:10;6.45;;;3.92;;
68010;SDS011;54794;48.348;7.878;2024-01-10T13:41:41;7.22;;;3.85;;
68010;SDS011;54794;48.348;7.878;2024-01-10T13:44:08;7.20;;;3.80;;
68010;SDS011;54794;48.348;7.878;2024-01-10T13:46:36;7.15;;;3.83;;
68010;SDS011;54794;48.348;7.878;2024-01-10T13:49:03;6.43;;;3.35;;
68010;SDS011;54794;48.348;7.878;2024-01-10T13:51:30;5.78;;;3.08;;
68010;SDS011;54794;48.348;7.878;2024-01-10T13:53:58;5.10;;;3.25;;
68010;SDS011;54794;48.348;7.878;2024-01-10T13:56:25;5.47;;;2.97;;
68010;SDS011;54794;48.348;7.878;2024-01-10T13:58:54;5.43;;;3.28;;
68010;SDS011;54794;48.348;7.878;2024-01-10T14:01:21;6.85;;;3.65;;
68010;SDS011;54794;48.348;7.878;2024-01-10T14:03:48;7.35;;;3.35;;
68010;SDS011;54794;48.348;7.878;2024-01-10T14:06:15;6.97;;;3.70;;
68010;SDS011;54794;48.348;7.878;2024-01-10T14:08:42;6.78;;;3.53;;
68010;SDS011;54794;48.348;7.878;2024-01-10T14:11:12;5.72;;;3.63;;
68010;SDS011;54794;48.348;7.878;2024-01-10T14:13:46;6.90;;;3.28;;
68010;SDS011;54794;48.348;7.878;2024-01-10T14:16:13;6.82;;;3.40;;
68010;SDS011;54794;48.348;7.878;2024-01-10T14:18:42;7.13;;;3.67;;
68010;SDS011;54794;48.348;7.878;2024-01-10T14:21:09;5.88;;;3.47;;
68010;SDS011;54794;48.348;7.878;2024-01-10T14:26:04;5.47;;;2.75;;
68010;SDS011;54794;48.348;7.878;2024-01-10T14:30:59;5.82;;;2.80;;
68010;SDS011;54794;48.348;7.878;2024-01-10T14:33:43;6.72;;;3.35;;
68010;SDS011;54794;48.348;7.878;2024-01-10T14:36:11;7.45;;;3.65;;
68010;SDS011;54794;48.348;7.878;2024-01-10T14:38:38;6.43;;;3.28;;
68010;SDS011;54794;48.348;7.878;2024-01-10T14:41:08;7.10;;;3.55;;
68010;SDS011;54794;48.348;7.878;2024-01-10T14:43:36;6.60;;;3.47;;
68010;SDS011;54794;48.348;7.878;2024-01-10T14:46:06;7.90;;;3.28;;
68010;SDS011;54794;48.348;7.878;2024-01-10T14:48:33;5.97;;;3.25;;
68010;SDS011;54794;48.348;7.878;2024-01-10T14:51:02;8.07;;;4.03;;
68010;SDS011;54794;48.348;7.878;2024-01-10T14:53:30;7.43;;;4.03;;
68010;SDS011;54794;48.348;7.878;2024-01-10T14:55:58;6.45;;;3.90;;
68010;SDS011;54794;48.348;7.878;2024-01-10T14:58:25;7.32;;;4.75;;
68010;SDS011;54794;48.348;7.878;2024-01-10T15:00:52;6.47;;;4.03;;
68010;SDS011;54794;48.348;7.878;2024-01-10T15:03:24;7.00;;;3.80;;
68010;SDS011;54794;48.348;7.878;2024-01-10T15:05:55;5.78;;;3.40;;
68010;SDS011;54794;48.348;7.878;2024-01-10T15:08:22;7.00;;;3.85;;
68010;SDS011;54794;48.348;7.878;2024-01-10T15:10:49;6.57;;;3.63;;
68010;SDS011;54794;48.348;7.878;2024-01-10T15:13:16;6.15;;;3.53;;
68010;SDS011;54794;48.348;7.878;2024-01-10T15:15:44;6.95;;;3.53;;
68010;SDS011;54794;48.348;7.878;2024-01-10T15:22:11;6.07;;;3.05;;
68010;SDS011;54794;48.348;7.878;2024-01-10T15:24:38;6.95;;;3.50;;
68010;SDS011;54794;48.348;7.878;2024-01-10T15:38:08;4.82;;;2.60;;
68010;SDS011;54794;48.348;7.878;2024-01-10T15:40:52;5.53;;;3.03;;